Weather at Rome–Fiumicino Leonardo da Vinci International Airport

Public forecast

Using degrees Celsius for public forecast. Weather courtesy of forecast.io.

Current aviation weather report (METAR) for Rome–Fiumicino Leonardo da Vinci International Airport

Retrieved 2021/10/22 06:20 UTC (19 minutes ago):

LIRF 220620Z 13006KT 9999 FEW020 19/17 Q1015 NOSIG

Aviation forecast (TAF) for Rome–Fiumicino Leonardo da Vinci International Airport

Retrieved 2021/10/22 06:00 UTC (39 minutes ago):

TAF LIRF 220500Z 2206/2312 11007KT 7000 SCT030 TEMPO 2206/2218 SHRA BECMG 2208/2210 17014KT BECMG 2218/2220 VRB05KT TEMPO 2300/2306 3000 BR BECMG 2307/2309 15010KT TEMPO 2309/2312 SHRA